Main page
METAR-TAF:

METAR-TAF

Airports :

Žilina Airport

Žilina, Slovakia

latitude: 49-14N, longitude: 018-36-49E, elevation: 312 m

Current weather observation

The report was made 24 minutes ago, at 01:30 UTC
Wind 5 kt from the East/Northeast
Temperature -5°C
Humidity 86%
Pressure 1017 hPa
Visibility 10 km or more
Overcast at a height of 5300 ft

METAR: LZZI 200130Z 07005KT 9999 OVC053 M05/M07 Q1017

Time: 02:54 (01:54 UTC)

Forecast

The report was made 2 hours and 54 minutes ago, at 23:00 UTC
Forecast valid from 20 at 00 UTC to 20 at 09 UTC
Wind 2 kt from variable directions
Visibility 10 km or more
no clouds below 1500 m and no cumulonimbus
Temporary
from 20 at 00 UTC to 20 at 08 UTC
Visibility: 4000 m
Scattered clouds at a height of 1000 ft
mist

TAF: LZZI 192300Z 2000/2009 VRB02KT CAVOK TEMPO 2000/2008 4000 BR SCT010

Weather observations and forecasts of more than 4000 airports (METAR and TAF reports).

The available stations are represented by yellow and red dots on the map.

Hover mouse over dot to see the name of the station.

Then click to see weather observations and forecasts.

To change the map : click on the green buttons with a black cross to zoom in, on the green button with a dash to zoom out, or on the green arrows for adjacent maps.


METAR-TAF: